Time;durP1;ratioP1;P1;durP2;ratioP2;P2;SDS_P1;SDS_P2;PMS_P1;PMS_P2;Temp;Humidity;BMP_temperature;BMP_pressure;BME280_temperature;BME280_humidity;BME280_pressure;Samples;Min_cycle;Max_cycle;Signal;HPM_P1;HPM_P2
2024/04/15 00:01:25;;;;;;;3.97;2.37;;;19.00;85.10;;;;;;5324252;26;20470;-38
2024/04/15 00:03:51;;;;;;;3.50;1.87;;;19.00;85.30;;;;;;5325431;26;20577;-38
2024/04/15 00:06:17;;;;;;;4.37;2.50;;;18.90;85.20;;;;;;5323384;26;20438;-37
2024/04/15 00:08:46;;;;;;;12.20;2.50;;;19.00;85.40;;;;;;5324163;26;21275;-38
2024/04/15 00:11:12;;;;;;;6.10;2.40;;;19.00;85.60;;;;;;5323595;26;20470;-37
2024/04/15 00:13:38;;;;;;;5.43;2.63;;;19.00;85.60;;;;;;5324139;26;20566;-37
2024/04/15 00:16:08;;;;;;;3.40;2.43;;;18.90;85.50;;;;;;5323007;26;20438;-38
2024/04/15 00:18:35;;;;;;;6.60;2.60;;;18.90;85.70;;;;;;5325699;26;20450;-37
2024/04/15 00:21:02;;;;;;;8.00;2.70;;;18.90;85.80;;;;;;5323419;26;20524;-38
2024/04/15 00:23:30;;;;;;;2.27;2.07;;;18.90;86.00;;;;;;5323255;26;20442;-38
2024/04/15 00:25:58;;;;;;;6.07;2.40;;;18.90;86.10;;;;;;5324986;26;20454;-38
2024/04/15 00:28:24;;;;;;;7.00;2.80;;;18.90;86.30;;;;;;5325010;26;20927;-38
2024/04/15 00:30:55;;;;;;;3.40;2.10;;;18.90;86.40;;;;;;5324968;26;21037;-38
2024/04/15 00:33:21;;;;;;;4.27;2.50;;;18.80;86.50;;;;;;5294799;26;20446;-37
2024/04/15 00:35:48;;;;;;;5.47;2.00;;;18.80;86.60;;;;;;5324204;26;20474;-39
2024/04/15 00:38:16;;;;;;;4.20;2.10;;;18.80;86.90;;;;;;5323146;26;20466;-37
2024/04/15 00:40:43;;;;;;;6.37;2.40;;;18.80;87.00;;;;;;5320443;26;20876;-38
2024/04/15 00:43:09;;;;;;;6.30;2.83;;;18.80;87.10;;;;;;5321118;26;20454;-38
2024/04/15 00:45:38;;;;;;;4.77;2.90;;;18.80;87.20;;;;;;5320907;26;20460;-38
2024/04/15 00:48:07;;;;;;;3.93;2.40;;;18.80;87.30;;;;;;5321356;26;20447;-40
2024/04/15 00:50:39;;;;;;;4.40;2.63;;;18.80;87.30;;;;;;5324863;26;20459;-40
2024/04/15 00:53:06;;;;;;;4.77;2.67;;;18.70;87.40;;;;;;5294768;26;20467;-37
2024/04/15 00:55:34;;;;;;;5.90;2.50;;;18.80;87.60;;;;;;5323076;26;20573;-38
2024/04/15 00:58:04;;;;;;;3.70;2.17;;;18.70;87.50;;;;;;5324730;26;21087;-38
2024/04/15 01:00:30;;;;;;;5.17;2.97;;;18.70;87.60;;;;;;5325031;26;20545;-39
2024/04/15 01:03:00;;;;;;;3.43;2.10;;;18.70;87.60;;;;;;5323438;26;20857;-36
2024/04/15 01:05:26;;;;;;;4.63;2.80;;;18.70;87.80;;;;;;5322537;26;20438;-38
2024/04/15 01:07:52;;;;;;;4.60;2.70;;;18.70;87.80;;;;;;5326459;26;20954;-39
2024/04/15 01:10:21;;;;;;;3.20;2.57;;;18.70;88.00;;;;;;5325732;26;20538;-39
2024/04/15 01:12:47;;;;;;;3.73;2.40;;;18.70;88.10;;;;;;5326743;26;20454;-36
2024/04/15 01:15:16;;;;;;;3.80;2.50;;;18.70;88.30;;;;;;5325495;26;20497;-38
2024/04/15 01:17:42;;;;;;;2.80;2.20;;;18.70;88.40;;;;;;5323038;26;20522;-38
2024/04/15 01:20:09;;;;;;;4.60;2.47;;;18.60;88.30;;;;;;5326048;26;20583;-36
2024/04/15 01:22:44;;;;;;;2.97;2.40;;;18.60;88.50;;;;;;5326299;26;21009;-37
2024/04/15 01:25:10;;;;;;;5.13;2.60;;;18.60;88.50;;;;;;5325655;26;21085;-39
2024/04/15 01:27:37;;;;;;;6.20;2.30;;;18.60;88.70;;;;;;5325690;26;20461;-38
2024/04/15 01:30:03;;;;;;;4.73;2.57;;;18.60;88.80;;;;;;5327404;26;21430;-38
2024/04/15 01:32:29;;;;;;;4.70;2.73;;;18.50;88.70;;;;;;5327562;26;20510;-37
2024/04/15 01:34:57;;;;;;;5.63;2.87;;;18.50;88.80;;;;;;5335964;21;20617;-70
2024/04/15 01:37:23;;;;;;;3.80;2.43;;;18.60;88.90;;;;;;5348042;26;20574;-70
2024/04/15 01:39:49;;;;;;;2.80;2.47;;;18.50;88.80;;;;;;5361988;26;21079;-71
2024/04/15 01:42:18;;;;;;;5.00;2.60;;;18.50;88.90;;;;;;5354226;26;20316;-70
2024/04/15 01:44:46;;;;;;;4.73;2.57;;;18.50;89.10;;;;;;5353949;26;20511;-70
2024/04/15 01:47:12;;;;;;;4.27;2.70;;;18.50;89.20;;;;;;5334026;26;20603;-69
2024/04/15 01:49:38;;;;;;;5.93;2.90;;;18.50;89.30;;;;;;5385222;26;20634;-70
2024/04/15 01:52:04;;;;;;;4.70;2.60;;;18.50;89.40;;;;;;5349539;26;20546;-70
2024/04/15 01:54:30;;;;;;;3.40;2.43;;;18.50;89.50;;;;;;5323911;26;20515;-70
2024/04/15 01:56:56;;;;;;;7.50;2.73;;;18.50;89.60;;;;;;5385535;26;20455;-70
2024/04/15 01:59:22;;;;;;;4.77;2.67;;;18.40;89.50;;;;;;5393106;26;20767;-69
2024/04/15 02:01:49;;;;;;;4.80;2.80;;;18.40;89.50;;;;;;5331635;26;20478;-70
2024/04/15 02:04:15;;;;;;;3.20;2.30;;;18.40;89.50;;;;;;5322095;26;20524;-71
2024/04/15 02:06:41;;;;;;;3.00;2.23;;;18.40;89.50;;;;;;5353763;26;20479;-69
2024/04/15 02:09:12;;;;;;;4.50;2.57;;;18.40;89.50;;;;;;5385163;26;20491;-69
2024/04/15 02:11:40;;;;;;;4.80;2.63;;;18.30;89.30;;;;;;5354791;26;20470;-70
2024/04/15 02:14:08;;;;;;;6.00;2.40;;;18.40;89.50;;;;;;5362782;26;20535;-69
2024/04/15 02:16:34;;;;;;;5.77;2.90;;;18.40;89.50;;;;;;5386350;26;20455;-70
2024/04/15 02:19:02;;;;;;;3.97;2.90;;;18.30;89.30;;;;;;5333117;26;20607;-69
2024/04/15 02:21:33;;;;;;;5.80;2.70;;;18.30;89.40;;;;;;5350179;26;20463;-70
2024/04/15 02:23:59;;;;;;;3.93;2.50;;;18.30;89.40;;;;;;5354984;26;20459;-69
2024/04/15 02:26:25;;;;;;;4.30;2.53;;;18.30;89.40;;;;;;5394445;26;20474;-70
2024/04/15 02:28:56;;;;;;;5.50;2.90;;;18.30;89.40;;;;;;5377087;26;20594;-70
2024/04/15 02:31:24;;;;;;;5.73;3.47;;;18.20;89.30;;;;;;5327283;26;20521;-69
2024/04/15 02:33:52;;;;;;;6.17;2.10;;;18.20;89.30;;;;;;5362488;26;20475;-69
2024/04/15 02:36:18;;;;;;;3.97;2.30;;;18.20;89.40;;;;;;5388381;26;20471;-70
2024/04/15 02:38:44;;;;;;;5.60;2.70;;;18.20;89.40;;;;;;5356266;26;20459;-70
2024/04/15 02:41:10;;;;;;;2.60;2.17;;;18.20;89.40;;;;;;5341592;26;20880;-70
2024/04/15 02:43:39;;;;;;;4.13;2.90;;;18.20;89.40;;;;;;5363340;26;20272;-69
2024/04/15 02:46:05;;;;;;;3.63;2.73;;;18.20;89.40;;;;;;5354314;26;20507;-70
2024/04/15 02:48:31;;;;;;;4.00;2.50;;;18.20;89.50;;;;;;5393184;26;21602;-70
2024/04/15 02:51:02;;;;;;;4.70;2.87;;;18.10;89.40;;;;;;5356548;26;21336;-69
2024/04/15 02:53:28;;;;;;;4.00;2.33;;;18.10;89.50;;;;;;5332846;26;20555;-69
2024/04/15 02:55:54;;;;;;;4.03;2.30;;;18.10;89.50;;;;;;5353592;26;20479;-69
2024/04/15 02:58:22;;;;;;;5.23;2.73;;;18.10;89.50;;;;;;5362029;26;20467;-69
2024/04/15 03:00:50;;;;;;;4.27;3.00;;;18.10;89.50;;;;;;5387879;26;21275;-69
2024/04/15 03:03:17;;;;;;;6.50;2.57;;;18.10;89.60;;;;;;5333045;26;20503;-69
2024/04/15 03:05:44;;;;;;;7.60;2.70;;;18.10;89.60;;;;;;5373011;26;20462;-69
2024/04/15 03:08:10;;;;;;;2.73;2.20;;;18.00;89.50;;;;;;5326078;26;20538;-70
2024/04/15 03:10:39;;;;;;;4.30;2.60;;;18.00;89.60;;;;;;5350830;26;20459;-70
2024/04/15 03:13:05;;;;;;;4.27;2.87;;;18.00;89.60;;;;;;5361910;26;20495;-70
2024/04/15 03:15:33;;;;;;;4.43;2.87;;;18.00;89.50;;;;;;5324451;26;20981;-70
2024/04/15 03:18:02;;;;;;;3.70;2.83;;;18.00;89.60;;;;;;5304003;26;20483;-70
2024/04/15 03:20:29;;;;;;;4.00;2.73;;;18.00;89.70;;;;;;5329877;26;20874;-70
2024/04/15 03:22:55;;;;;;;3.83;2.53;;;17.90;89.70;;;;;;5344952;26;20473;-69
2024/04/15 03:25:25;;;;;;;2.40;2.20;;;18.00;89.80;;;;;;5322210;26;20524;-70
2024/04/15 03:27:51;;;;;;;4.37;2.57;;;17.90;89.70;;;;;;5366863;26;20471;-70
2024/04/15 03:30:17;;;;;;;3.27;2.53;;;17.90;89.80;;;;;;5376274;26;20610;-70
2024/04/15 03:32:45;;;;;;;4.43;3.00;;;17.90;89.80;;;;;;5385243;26;21014;-70
2024/04/15 03:35:13;;;;;;;5.40;2.70;;;17.90;89.70;;;;;;5378252;26;20467;-70
2024/04/15 03:37:44;;;;;;;5.53;2.70;;;17.90;89.80;;;;;;5325502;26;20479;-70
2024/04/15 03:40:13;;;;;;;4.10;2.80;;;17.80;89.80;;;;;;5325854;26;20489;-70
2024/04/15 03:42:39;;;;;;;3.47;2.60;;;17.80;89.80;;;;;;5329632;26;20526;-71
2024/04/15 03:45:06;;;;;;;4.00;2.67;;;17.80;89.90;;;;;;5359558;26;21412;-70
2024/04/15 03:47:32;;;;;;;4.70;3.03;;;17.80;89.90;;;;;;5316834;26;21215;-70
2024/04/15 03:49:58;;;;;;;5.10;3.03;;;17.80;89.90;;;;;;5370669;26;20956;-70
2024/04/15 03:52:24;;;;;;;5.20;2.77;;;17.80;90.00;;;;;;5337920;26;20315;-70
2024/04/15 03:54:51;;;;;;;4.80;2.87;;;17.80;90.00;;;;;;5345701;26;20496;-69
2024/04/15 03:57:17;;;;;;;4.10;2.80;;;17.70;89.90;;;;;;5340611;26;20467;-69
2024/04/15 03:59:48;;;;;;;4.00;2.70;;;17.70;89.90;;;;;;5342888;26;20523;-70
2024/04/15 04:02:14;;;;;;;5.30;2.90;;;17.70;90.00;;;;;;5386273;26;20538;-70
2024/04/15 04:04:42;;;;;;;5.97;2.90;;;17.70;90.00;;;;;;5334761;26;21188;-69
2024/04/15 04:07:08;;;;;;;3.07;1.93;;;17.70;90.00;;;;;;5345052;26;21507;-71
2024/04/15 04:09:41;;;;;;;4.70;2.90;;;17.70;90.00;;;;;;5347957;26;20475;-71
2024/04/15 04:12:07;;;;;;;3.43;2.20;;;17.60;90.00;;;;;;5385021;26;20467;-71
2024/04/15 04:14:33;;;;;;;6.47;2.30;;;17.60;90.00;;;;;;5377695;26;20670;-71
2024/04/15 04:17:01;;;;;;;3.90;2.67;;;17.60;90.00;;;;;;5315435;26;20608;-72
2024/04/15 04:19:27;;;;;;;4.80;2.60;;;17.60;90.00;;;;;;5359028;26;20995;-70
2024/04/15 04:21:53;;;;;;;4.87;2.90;;;17.50;89.90;;;;;;5355194;26;20546;-70
2024/04/15 04:24:19;;;;;;;4.27;2.30;;;17.60;90.00;;;;;;5349741;26;20576;-71
2024/04/15 04:26:45;;;;;;;3.27;2.60;;;17.60;90.00;;;;;;5344793;26;20514;-70
2024/04/15 04:29:11;;;;;;;3.90;2.90;;;17.50;90.00;;;;;;5346366;26;20475;-70
2024/04/15 04:31:38;;;;;;;5.70;2.80;;;17.50;90.00;;;;;;5334595;26;20611;-70
2024/04/15 04:34:04;;;;;;;3.07;2.03;;;17.50;90.00;;;;;;5346563;26;21591;-71
2024/04/15 04:36:30;;;;;;;3.80;2.40;;;17.50;90.00;;;;;;5311640;26;20531;-76
2024/04/15 04:38:57;;;;;;;5.43;2.63;;;17.50;90.00;;;;;;5339113;26;21029;-76
2024/04/15 04:41:23;;;;;;;5.10;2.37;;;17.40;90.00;;;;;;5292842;26;20246;-77
2024/04/15 04:43:54;;;;;;;5.57;2.90;;;17.50;90.00;;;;;;5365793;26;20670;-77
2024/04/15 04:46:21;;;;;;;4.23;2.33;;;17.40;90.00;;;;;;5320478;26;20520;-78
2024/04/15 04:48:47;;;;;;;3.50;2.50;;;17.40;90.00;;;;;;5353721;26;21061;-74
2024/04/15 04:51:13;;;;;;;3.07;2.77;;;17.40;90.00;;;;;;5311393;26;20591;-71
2024/04/15 04:53:39;;;;;;;5.70;2.97;;;17.30;89.90;;;;;;5339051;26;20503;-75
2024/04/15 04:56:08;;;;;;;4.33;2.70;;;17.30;90.00;;;;;;5340921;26;21105;-77
2024/04/15 04:58:41;;;;;;;4.33;2.63;;;17.40;90.00;;;;;;5304301;26;20578;-75
2024/04/15 05:01:17;;;;;;;5.63;3.10;;;17.30;89.90;;;;;;5370606;26;20616;-74
2024/04/15 05:03:45;;;;;;;3.63;2.20;;;17.30;89.90;;;;;;5303567;26;20552;-76
2024/04/15 05:06:12;;;;;;;3.27;2.83;;;17.30;89.90;;;;;;5325610;26;20513;-73
2024/04/15 05:08:40;;;;;;;6.93;2.77;;;17.30;90.00;;;;;;5271192;26;21020;-73
2024/04/15 05:11:07;;;;;;;2.90;2.67;;;17.30;90.00;;;;;;5325356;26;20685;-73
2024/04/15 05:13:34;;;;;;;5.80;2.77;;;17.30;90.00;;;;;;5380934;26;20454;-74
2024/04/15 05:16:06;;;;;;;2.67;2.20;;;17.20;90.00;;;;;;5328622;26;20584;-74
2024/04/15 05:18:33;;;;;;;4.70;2.63;;;17.30;90.00;;;;;;5320480;26;20518;-74
2024/04/15 05:21:09;;;;;;;3.00;2.10;;;17.20;90.00;;;;;;5343598;26;20517;-73
2024/04/15 05:23:35;;;;;;;3.50;2.30;;;17.20;90.00;;;;;;5343442;26;21251;-73
2024/04/15 05:26:01;;;;;;;4.30;2.87;;;17.20;90.00;;;;;;5345317;26;20520;-74
2024/04/15 05:28:33;;;;;;;5.50;2.60;;;17.20;90.00;;;;;;5320320;26;21232;-74
2024/04/15 05:30:59;;;;;;;5.77;2.50;;;17.10;89.90;;;;;;5315800;26;20542;-74
2024/04/15 05:33:25;;;;;;;2.67;2.47;;;17.10;89.80;;;;;;5348944;26;21003;-73
2024/04/15 05:35:55;;;;;;;10.30;3.90;;;17.10;89.90;;;;;;5333658;26;20472;-74
2024/04/15 05:38:22;;;;;;;2.73;2.30;;;17.10;89.90;;;;;;5290732;26;21126;-74
2024/04/15 05:40:47;;;;;;;4.27;2.97;;;17.10;89.90;;;;;;5331565;26;20470;-74
2024/04/15 05:43:14;;;;;;;4.00;2.87;;;17.10;89.90;;;;;;5371791;26;20459;-73
2024/04/15 05:45:45;;;;;;;6.33;2.83;;;17.00;89.70;;;;;;5331319;26;20531;-73
2024/04/15 05:48:15;;;;;;;5.77;2.43;;;17.00;89.70;;;;;;5309722;26;20485;-75
2024/04/15 05:50:44;;;;;;;5.80;2.40;;;17.00;89.80;;;;;;5346190;26;20459;-73
2024/04/15 05:53:11;;;;;;;3.40;2.87;;;17.00;89.80;;;;;;5328856;26;20831;-73
2024/04/15 05:55:39;;;;;;;3.57;2.37;;;17.00;89.80;;;;;;5374747;26;20459;-74
2024/04/15 05:58:05;;;;;;;3.20;2.53;;;17.00;89.80;;;;;;5333862;26;20522;-74
2024/04/15 06:00:33;;;;;;;3.50;2.60;;;16.90;89.70;;;;;;5311113;26;20964;-74
2024/04/15 06:03:00;;;;;;;4.10;2.13;;;16.90;89.80;;;;;;5380447;26;20521;-73
2024/04/15 06:05:26;;;;;;;7.47;3.00;;;16.90;89.80;;;;;;5379173;26;20544;-73
2024/04/15 06:07:52;;;;;;;4.70;2.70;;;16.90;89.80;;;;;;5291122;26;20543;-74
2024/04/15 06:10:19;;;;;;;2.73;2.43;;;16.90;89.80;;;;;;5342183;26;21231;-74
2024/04/15 06:12:45;;;;;;;4.93;3.07;;;16.90;89.80;;;;;;5345553;26;21221;-73
2024/04/15 06:15:14;;;;;;;6.47;2.70;;;16.80;89.60;;;;;;5346296;26;20526;-75
2024/04/15 06:17:40;;;;;;;5.27;2.50;;;16.80;89.60;;;;;;5348832;26;20479;-74
2024/04/15 06:20:08;;;;;;;4.73;2.43;;;16.80;89.60;;;;;;5346581;26;20600;-73
2024/04/15 06:22:34;;;;;;;6.43;2.23;;;16.80;89.40;;;;;;5380923;26;21095;-74
2024/04/15 06:25:04;;;;;;;4.67;2.20;;;16.80;89.40;;;;;;5347327;26;20519;-72
2024/04/15 06:27:30;;;;;;;3.00;2.10;;;16.80;89.40;;;;;;5318456;26;21254;-73
2024/04/15 06:29:56;;;;;;;4.37;2.63;;;16.70;89.20;;;;;;5344086;26;21116;-74
2024/04/15 06:32:29;;;;;;;6.77;2.20;;;16.70;89.20;;;;;;5373285;26;20478;-74
2024/04/15 06:34:58;;;;;;;2.77;1.90;;;16.70;89.30;;;;;;5312295;26;20494;-74
2024/04/15 06:37:24;;;;;;;4.33;2.07;;;16.70;89.20;;;;;;5382331;26;20526;-73
2024/04/15 06:39:50;;;;;;;4.20;2.10;;;16.70;89.20;;;;;;5338969;26;20468;-73
2024/04/15 06:42:21;;;;;;;3.43;1.93;;;16.70;89.20;;;;;;5369456;26;20483;-72
2024/04/15 06:44:47;;;;;;;7.40;2.70;;;16.60;89.00;;;;;;5310931;26;20530;-72
2024/04/15 06:47:14;;;;;;;5.83;2.33;;;16.60;88.80;;;;;;5328870;26;20953;-72
2024/04/15 06:49:42;;;;;;;5.50;2.30;;;16.60;88.80;;;;;;5364703;26;20511;-71
2024/04/15 06:52:08;;;;;;;5.20;1.90;;;16.60;88.80;;;;;;5336895;26;20467;-72
2024/04/15 06:54:40;;;;;;;3.67;2.20;;;16.60;88.80;;;;;;5345434;26;20965;-71
2024/04/15 06:57:06;;;;;;;4.90;1.90;;;16.50;88.60;;;;;;5286062;26;20477;-72
2024/04/15 06:59:34;;;;;;;5.17;1.90;;;16.50;88.60;;;;;;5338094;26;20820;-72
2024/04/15 07:02:00;;;;;;;5.00;2.20;;;16.50;88.60;;;;;;5369294;26;21217;-72
2024/04/15 07:04:26;;;;;;;6.27;2.10;;;16.50;88.60;;;;;;5351424;26;20550;-72
2024/04/15 07:06:55;;;;;;;4.60;1.97;;;16.50;88.70;;;;;;5353251;26;20478;-72
2024/04/15 07:09:27;;;;;;;6.10;2.30;;;16.50;88.70;;;;;;5344539;26;20241;-72
2024/04/15 07:11:54;;;;;;;6.87;2.37;;;16.50;88.70;;;;;;5338975;26;21088;-72
2024/04/15 07:14:20;;;;;;;9.73;2.67;;;16.50;88.70;;;;;;5350350;26;21187;-72
2024/04/15 07:16:46;;;;;;;6.50;2.20;;;16.40;88.60;;;;;;5333959;26;20522;-72
2024/04/15 07:19:14;;;;;;;4.97;2.10;;;16.40;88.70;;;;;;5382997;26;20558;-72
2024/04/15 07:21:41;;;;;;;3.07;2.10;;;16.40;88.80;;;;;;5332022;26;20585;-72
2024/04/15 07:24:09;;;;;;;5.50;2.27;;;16.40;88.70;;;;;;5369607;26;20523;-72
2024/04/15 07:26:35;;;;;;;6.57;2.00;;;16.40;88.80;;;;;;5354060;26;20483;-72
2024/04/15 07:29:01;;;;;;;3.93;2.00;;;16.40;88.90;;;;;;5352835;26;20455;-72
2024/04/15 07:31:31;;;;;;;4.97;2.37;;;16.40;88.90;;;;;;5299848;26;20588;-72
2024/04/15 07:33:59;;;;;;;4.00;2.60;;;16.40;88.80;;;;;;5386148;21;20537;-35
2024/04/15 07:36:28;;;;;;;5.93;2.30;;;16.30;88.60;;;;;;5323925;26;20979;-35
2024/04/15 07:39:00;;;;;;;3.50;1.80;;;16.30;88.60;;;;;;5325575;26;20589;-35
2024/04/15 07:41:30;;;;;;;5.93;2.43;;;16.30;88.50;;;;;;5332618;26;20471;-35
2024/04/15 07:43:57;;;;;;;8.13;1.93;;;16.30;88.40;;;;;;5332955;26;20461;-34
2024/04/15 07:46:26;;;;;;;4.17;1.80;;;16.30;88.40;;;;;;5328801;26;20449;-35
2024/04/15 07:48:54;;;;;;;5.30;2.57;;;16.30;88.40;;;;;;5339402;26;21156;-41
2024/04/15 07:51:21;;;;;;;4.33;1.77;;;16.30;88.40;;;;;;5336766;26;20617;-44
2024/04/15 07:53:50;;;;;;;5.03;2.10;;;16.20;88.40;;;;;;5368935;26;20460;-43
2024/04/15 07:56:18;;;;;;;6.43;2.23;;;16.20;88.50;;;;;;5334536;26;20512;-43
2024/04/15 07:58:46;;;;;;;3.20;2.00;;;16.20;88.60;;;;;;5320092;26;20775;-43
2024/04/15 08:01:13;;;;;;;3.80;1.90;;;16.20;88.60;;;;;;5325877;26;20481;-43
2024/04/15 08:03:40;;;;;;;4.27;1.73;;;16.20;88.40;;;;;;5327163;26;20557;-41
2024/04/15 08:06:08;;;;;;;5.57;2.30;;;16.20;88.50;;;;;;5360462;26;20519;-43
2024/04/15 08:08:36;;;;;;;3.60;2.10;;;16.20;88.60;;;;;;5310007;26;20469;-43
2024/04/15 08:11:03;;;;;;;5.13;2.20;;;16.20;88.60;;;;;;5311436;26;20479;-43
2024/04/15 08:13:31;;;;;;;3.63;2.10;;;16.20;88.70;;;;;;5331687;26;20511;-43
2024/04/15 08:15:58;;;;;;;6.47;1.90;;;16.20;88.50;;;;;;5331509;26;20514;-43
2024/04/15 08:18:31;;;;;;;6.77;3.80;;;16.20;88.30;;;;;;5332545;26;20618;-42
2024/04/15 08:20:59;;;;;;;4.77;2.13;;;16.20;88.10;;;;;;5330197;26;20555;-43
2024/04/15 08:23:26;;;;;;;5.27;1.97;;;16.20;87.90;;;;;;5326472;26;20465;-43
2024/04/15 08:25:59;;;;;;;5.47;1.90;;;16.20;88.00;;;;;;5299132;26;20632;-43
2024/04/15 08:28:26;;;;;;;4.43;2.10;;;16.20;88.00;;;;;;5331252;26;21225;-43
2024/04/15 08:30:54;;;;;;;3.80;1.60;;;16.10;87.80;;;;;;5362349;26;21380;-43
2024/04/15 08:33:21;;;;;;;11.17;1.90;;;16.10;87.90;;;;;;5368865;26;20529;-43
2024/04/15 08:35:53;;;;;;;4.50;1.97;;;16.20;88.00;;;;;;5361218;26;20531;-43
2024/04/15 08:38:21;;;;;;;4.87;1.87;;;16.10;88.00;;;;;;5286750;26;20461;-43
2024/04/15 08:40:56;;;;;;;5.33;1.80;;;16.20;88.10;;;;;;5340561;26;21463;-42
2024/04/15 08:43:27;;;;;;;4.87;1.73;;;16.20;88.10;;;;;;5350120;26;20476;-43
2024/04/15 08:46:04;;;;;;;4.27;1.77;;;16.10;88.00;;;;;;5316434;26;20560;-42
2024/04/15 08:48:32;;;;;;;9.17;2.07;;;16.20;87.70;;;;;;5283067;26;20688;-42
2024/04/15 08:51:02;;;;;;;4.23;1.83;;;16.20;87.50;;;;;;5359586;26;20480;-43
2024/04/15 08:53:31;;;;;;;4.87;2.03;;;16.10;87.30;;;;;;5276706;26;20592;-42
2024/04/15 08:56:01;;;;;;;7.33;2.30;;;16.20;87.30;;;;;;5307296;26;20472;-43
2024/04/15 08:58:31;;;;;;;5.10;1.90;;;16.20;87.20;;;;;;5340075;26;20458;-43
2024/04/15 09:00:59;;;;;;;5.37;1.97;;;16.10;87.20;;;;;;5287615;26;20517;-42
2024/04/15 09:03:28;;;;;;;6.63;2.57;;;16.10;86.60;;;;;;5329655;26;21016;-42
2024/04/15 09:05:55;;;;;;;3.90;1.90;;;16.20;86.70;;;;;;5332509;26;20512;-43
2024/04/15 09:08:23;;;;;;;4.57;2.53;;;16.10;86.60;;;;;;5375796;26;20504;-43
2024/04/15 09:10:51;;;;;;;2.93;1.60;;;16.10;86.50;;;;;;5304320;26;20527;-42
2024/04/15 09:13:23;;;;;;;3.63;1.70;;;16.10;86.50;;;;;;5372360;26;20903;-43
2024/04/15 09:15:51;;;;;;;4.67;1.50;;;16.10;86.20;;;;;;5289974;26;20475;-42
2024/04/15 09:18:21;;;;;;;3.00;1.70;;;16.20;86.40;;;;;;5346153;26;20801;-43
2024/04/15 09:20:49;;;;;;;7.33;2.03;;;16.20;86.50;;;;;;5374540;26;20837;-42
2024/04/15 09:23:20;;;;;;;7.53;2.07;;;16.20;86.50;;;;;;5313675;26;20464;-42
2024/04/15 09:25:50;;;;;;;4.40;1.63;;;16.20;86.30;;;;;;5349926;26;20637;-42
2024/04/15 09:28:19;;;;;;;2.07;1.70;;;16.20;86.40;;;;;;5293655;26;20521;-42
2024/04/15 09:30:45;;;;;;;2.47;1.60;;;16.20;86.30;;;;;;5359752;26;20477;-43
2024/04/15 09:33:15;;;;;;;5.20;1.80;;;16.20;86.20;;;;;;5342202;26;20465;-43
2024/04/15 09:35:50;;;;;;;4.67;2.27;;;16.20;86.20;;;;;;5330333;26;21109;-42
2024/04/15 09:38:24;;;;;;;3.57;1.93;;;16.20;85.90;;;;;;5333059;26;20584;-43
2024/04/15 09:40:52;;;;;;;3.03;1.80;;;16.20;85.70;;;;;;5344892;26;21015;-43
2024/04/15 09:43:23;;;;;;;5.03;2.00;;;16.20;85.20;;;;;;5333466;26;20943;-42
2024/04/15 09:45:51;;;;;;;3.43;1.80;;;16.20;85.20;;;;;;5328092;26;20469;-43
2024/04/15 09:48:23;;;;;;;3.80;1.90;;;16.20;85.00;;;;;;5365589;26;20509;-43
2024/04/15 09:51:07;;;;;;;3.30;1.70;;;16.20;85.00;;;;;;5310842;26;20477;-43
2024/04/15 09:53:59;;;;;;;3.93;1.70;;;16.20;85.00;;;;;;5335451;26;20451;-42
2024/04/15 09:56:32;;;;;;;3.23;1.73;;;16.20;85.10;;;;;;5353468;26;20950;-43
2024/04/15 09:59:05;;;;;;;2.73;1.70;;;16.20;85.00;;;;;;5361340;26;20515;-43
2024/04/15 10:01:32;;;;;;;4.70;2.00;;;16.20;85.20;;;;;;5315175;26;20517;-43
2024/04/15 10:04:04;;;;;;;2.60;1.60;;;16.20;85.10;;;;;;5367614;26;20542;-43
2024/04/15 10:06:42;;;;;;;3.80;1.40;;;16.20;85.10;;;;;;5313567;26;20495;-42
2024/04/15 10:09:11;;;;;;;6.63;2.53;;;16.20;85.00;;;;;;5291779;26;20513;-43
2024/04/15 10:11:40;;;;;;;5.03;1.87;;;16.20;84.80;;;;;;5341386;26;21359;-43
2024/04/15 10:14:11;;;;;;;4.50;2.13;;;16.20;84.80;;;;;;5337076;26;20469;-43
2024/04/15 10:16:38;;;;;;;7.70;1.93;;;16.20;84.10;;;;;;5319662;26;20467;-43
2024/04/15 10:19:10;;;;;;;4.50;1.90;;;16.20;83.90;;;;;;5363385;26;20707;-43
2024/04/15 10:21:40;;;;;;;5.23;2.37;;;16.20;83.80;;;;;;5294139;26;20525;-43
2024/04/15 10:24:11;;;;;;;5.07;2.00;;;16.20;83.70;;;;;;5298126;26;20452;-43
2024/04/15 10:26:38;;;;;;;6.67;2.07;;;16.20;83.80;;;;;;5341170;26;20977;-43
2024/04/15 10:29:24;;;;;;;3.07;1.73;;;16.20;83.60;;;;;;5322091;26;21112;-43
2024/04/15 10:31:51;;;;;;;3.57;1.90;;;16.20;83.60;;;;;;5360132;26;20463;-43
2024/04/15 10:34:27;;;;;;;7.63;2.10;;;16.20;83.70;;;;;;5367954;26;20469;-43
2024/04/15 10:36:58;;;;;;;5.87;1.80;;;16.20;83.50;;;;;;5332839;26;20457;-43
2024/04/15 10:39:26;;;;;;;7.00;2.10;;;16.20;83.50;;;;;;5322757;26;21094;-43
2024/04/15 10:41:52;;;;;;;5.60;2.30;;;16.30;83.80;;;;;;5333489;26;20467;-43
2024/04/15 10:44:18;;;;;;;3.50;1.80;;;16.20;83.70;;;;;;5358389;26;20544;-43
2024/04/15 10:46:48;;;;;;;4.13;1.90;;;16.30;83.80;;;;;;5327854;26;20465;-43
2024/04/15 10:49:23;;;;;;;4.63;1.93;;;16.30;83.70;;;;;;5292260;26;20974;-44
2024/04/15 10:51:53;;;;;;;5.60;1.90;;;16.30;83.70;;;;;;5303696;26;21685;-43
2024/04/15 10:54:21;;;;;;;2.50;1.90;;;16.30;83.00;;;;;;5323246;26;21202;-42
2024/04/15 10:56:48;;;;;;;5.23;2.00;;;16.30;82.60;;;;;;5320358;26;20456;-42
2024/04/15 10:59:17;;;;;;;6.07;2.57;;;16.30;82.60;;;;;;5333226;26;20647;-43
2024/04/15 11:01:46;;;;;;;5.23;2.00;;;16.30;83.80;;;;;;5332027;26;20508;-42
2024/04/15 11:04:13;;;;;;;3.17;2.03;;;16.30;82.90;;;;;;5329169;26;20471;-43
2024/04/15 11:06:41;;;;;;;5.83;2.00;;;16.40;82.70;;;;;;5305416;26;20472;-43
2024/04/15 11:09:10;;;;;;;4.53;2.07;;;16.30;82.30;;;;;;5344451;26;21213;-43
2024/04/15 11:11:39;;;;;;;6.27;2.27;;;16.30;81.20;;;;;;5333025;26;20455;-43
2024/04/15 11:14:12;;;;;;;3.03;1.83;;;16.30;80.50;;;;;;5346444;26;20663;-43
2024/04/15 11:16:46;;;;;;;6.13;2.10;;;16.30;80.70;;;;;;5306035;26;20453;-42
2024/04/15 11:19:16;;;;;;;5.73;2.30;;;16.40;81.10;;;;;;5357187;26;20508;-42
2024/04/15 11:21:46;;;;;;;4.30;2.00;;;16.40;80.90;;;;;;5320539;26;20482;-43
2024/04/15 11:24:12;;;;;;;3.30;1.90;;;16.40;81.90;;;;;;5308805;26;20489;-42
2024/04/15 11:26:41;;;;;;;6.33;1.90;;;16.40;80.80;;;;;;5355346;26;20453;-43
2024/04/15 11:29:12;;;;;;;4.20;1.97;;;16.40;80.20;;;;;;5332012;26;21513;-43
2024/04/15 11:31:41;;;;;;;4.83;1.87;;;16.40;80.40;;;;;;5333244;26;20593;-42
2024/04/15 11:34:08;;;;;;;4.80;2.50;;;16.40;79.80;;;;;;5343194;26;20507;-43
2024/04/15 11:36:40;;;;;;;2.47;1.47;;;16.40;79.50;;;;;;5311854;26;20544;-42
2024/04/15 11:39:08;;;;;;;4.93;2.30;;;16.40;79.80;;;;;;5367273;26;20929;-43
2024/04/15 11:41:35;;;;;;;4.23;1.67;;;16.40;79.60;;;;;;5334578;26;20524;-42
2024/04/15 11:44:01;;;;;;;4.43;2.00;;;16.40;79.60;;;;;;5303230;26;20986;-43
2024/04/15 11:46:27;;;;;;;7.87;1.80;;;16.40;79.60;;;;;;5362579;26;20471;-43
2024/04/15 11:48:54;;;;;;;3.70;2.00;;;16.40;78.80;;;;;;5355479;26;20583;-42
2024/04/15 11:51:21;;;;;;;2.80;2.00;;;16.50;78.70;;;;;;5352069;26;21261;-43
2024/04/15 11:53:51;;;;;;;4.27;2.07;;;16.50;78.70;;;;;;5364464;26;20521;-43
2024/04/15 11:56:17;;;;;;;5.13;1.80;;;16.50;78.50;;;;;;5306892;26;20463;-43
2024/04/15 11:58:46;;;;;;;2.30;1.60;;;16.50;78.40;;;;;;5342071;26;21368;-43
2024/04/15 12:01:14;;;;;;;3.73;2.10;;;16.50;77.90;;;;;;5336684;26;20522;-43
2024/04/15 12:03:40;;;;;;;4.73;1.80;;;16.50;77.70;;;;;;5320209;26;20460;-43
2024/04/15 12:06:08;;;;;;;5.90;2.10;;;16.60;77.50;;;;;;5307565;26;20641;-42
2024/04/15 12:08:37;;;;;;;6.80;1.63;;;16.60;77.40;;;;;;5333874;26;20930;-42
2024/04/15 12:11:10;;;;;;;4.63;2.53;;;16.60;77.30;;;;;;5315612;26;20595;-43
2024/04/15 12:13:44;;;;;;;5.57;2.00;;;16.60;76.50;;;;;;5304307;26;20564;-44
2024/04/15 12:16:10;;;;;;;4.30;1.50;;;16.60;77.00;;;;;;5374668;26;20477;-43
2024/04/15 12:18:39;;;;;;;3.57;1.90;;;16.60;76.90;;;;;;5339875;26;21098;-43
2024/04/15 12:21:07;;;;;;;2.87;1.43;;;16.60;76.90;;;;;;5351467;26;20523;-43
2024/04/15 12:23:33;;;;;;;5.47;1.63;;;16.60;76.80;;;;;;5294598;26;20560;-42
2024/04/15 12:26:00;;;;;;;6.63;2.23;;;16.60;77.20;;;;;;5321741;26;20453;-42
2024/04/15 12:28:31;;;;;;;4.13;1.90;;;16.60;76.60;;;;;;5302112;26;20527;-43
2024/04/15 12:30:57;;;;;;;4.27;1.73;;;16.60;76.50;;;;;;5329940;26;20513;-43
2024/04/15 12:33:27;;;;;;;10.40;2.37;;;16.60;76.50;;;;;;5364896;26;20573;-43
2024/04/15 12:35:54;;;;;;;5.40;1.73;;;16.60;76.40;;;;;;5310245;26;20473;-43
2024/04/15 12:38:23;;;;;;;6.20;1.63;;;16.60;76.60;;;;;;5371541;26;20523;-43
2024/04/15 12:40:52;;;;;;;5.27;2.10;;;16.60;76.20;;;;;;5332618;26;20553;-43
2024/04/15 12:43:19;;;;;;;5.30;1.80;;;16.60;75.90;;;;;;5331486;26;20456;-43
2024/04/15 12:45:46;;;;;;;6.03;2.10;;;16.60;75.70;;;;;;5331662;26;20591;-43
2024/04/15 12:48:16;;;;;;;5.57;1.90;;;16.60;75.70;;;;;;5322780;26;20473;-43
2024/04/15 12:50:47;;;;;;;7.60;1.80;;;16.60;75.70;;;;;;5291980;26;21020;-42